Time;durP1;ratioP1;P1;durP2;ratioP2;P2;SDS_P1;SDS_P2;PMS_P1;PMS_P2;Temp;Humidity;BMP_temperature;BMP_pressure;BME280_temperature;BME280_humidity;BME280_pressure;Samples;Min_cycle;Max_cycle;Signal;HPM_P1;HPM_P2
2021/06/22 00:00:23;;;;;;;6.17;5.47;;;26.50;90.50;34.30;98544.00;;;;5089726;28;20210;-73
2021/06/22 00:02:49;;;;;;;7.73;5.20;;;26.50;90.50;34.20;98552.00;;;;5083355;28;20473;-73
2021/06/22 00:05:17;;;;;;;7.10;4.80;;;26.50;90.40;34.20;98549.00;;;;5071470;28;20777;-73
2021/06/22 00:07:46;;;;;;;8.10;5.63;;;26.50;90.50;34.30;98531.00;;;;5088666;28;20835;-73
2021/06/22 00:10:13;;;;;;;7.87;4.87;;;26.50;90.50;34.30;98534.00;;;;5072034;28;20953;-72
2021/06/22 00:12:39;;;;;;;7.20;4.80;;;26.50;90.50;34.20;98539.00;;;;5072084;28;20485;-73
2021/06/22 00:15:07;;;;;;;6.97;5.07;;;26.50;90.50;34.20;98544.00;;;;5088835;28;20457;-74
2021/06/22 00:17:32;;;;;;;8.57;4.93;;;26.50;90.50;34.10;98568.00;;;;5087878;28;20214;-74
2021/06/22 00:19:58;;;;;;;9.03;4.97;;;26.50;90.50;34.30;98560.00;;;;5089066;28;20427;-74
2021/06/22 00:22:24;;;;;;;6.30;4.87;;;26.50;90.50;34.30;98552.00;;;;5071942;28;20257;-74
2021/06/22 00:24:49;;;;;;;6.13;4.43;;;26.50;90.40;34.20;98563.00;;;;5072391;28;20515;-74
2021/06/22 00:27:16;;;;;;;9.27;5.40;;;26.50;90.50;34.20;98573.00;;;;5071257;28;20208;-74
2021/06/22 00:29:48;;;;;;;7.13;4.67;;;26.50;90.50;34.20;98578.00;;;;5088727;28;20176;-74
2021/06/22 00:32:14;;;;;;;8.00;5.47;;;26.40;90.50;34.20;98585.00;;;;5089061;28;20473;-74
2021/06/22 00:34:40;;;;;;;6.33;5.30;;;26.40;90.40;34.20;98582.00;;;;5087556;28;20947;-74
2021/06/22 00:37:05;;;;;;;6.53;4.30;;;26.40;90.40;34.20;98593.00;;;;5071686;28;20204;-74
2021/06/22 00:39:31;;;;;;;6.23;4.83;;;26.40;90.50;34.10;98590.00;;;;5055582;28;20190;-74
2021/06/22 00:41:57;;;;;;;10.33;5.20;;;26.40;90.50;34.20;98592.00;;;;5070677;28;20663;-73
2021/06/22 00:44:23;;;;;;;5.70;4.60;;;26.40;90.40;34.10;98601.00;;;;5088831;28;20434;-73
2021/06/22 00:46:49;;;;;;;5.80;4.67;;;26.40;90.40;34.10;98609.00;;;;5088322;28;20558;-78
2021/06/22 00:49:14;;;;;;;7.10;5.43;;;26.40;90.50;34.10;98604.00;;;;5071736;28;20352;-74
2021/06/22 00:51:44;;;;;;;8.97;4.83;;;26.40;90.50;34.10;98620.00;;;;5072160;28;20209;-74
2021/06/22 00:54:10;;;;;;;6.70;4.70;;;26.40;90.50;34.10;98612.00;;;;5054639;28;20218;-74
2021/06/22 00:56:36;;;;;;;6.50;4.73;;;26.40;90.50;34.10;98630.00;;;;5055057;28;20468;-74
2021/06/22 00:59:01;;;;;;;7.20;4.80;;;26.40;90.50;34.10;98611.00;;;;5088236;28;20992;-73
2021/06/22 01:01:27;;;;;;;7.83;5.20;;;26.40;90.50;34.00;98623.00;;;;5088270;28;20222;-74
2021/06/22 01:03:53;;;;;;;8.20;5.40;;;26.40;90.50;34.00;98625.00;;;;5071575;28;20214;-74
2021/06/22 01:06:20;;;;;;;6.97;4.47;;;26.40;90.50;34.00;98626.00;;;;5071928;28;20204;-74
2021/06/22 01:08:47;;;;;;;9.30;5.33;;;26.40;90.50;33.90;98628.00;;;;5054675;28;20445;-74
2021/06/22 01:11:14;;;;;;;8.67;5.20;;;26.40;90.50;34.00;98635.00;;;;5054683;28;20827;-74
2021/06/22 01:13:40;;;;;;;8.03;4.80;;;26.30;90.50;33.90;98637.00;;;;5088241;28;20553;-73
2021/06/22 01:16:06;;;;;;;7.57;5.13;;;26.30;90.40;34.10;98639.00;;;;5088167;28;20833;-74
2021/06/22 01:18:32;;;;;;;10.70;5.10;;;26.30;90.50;33.90;98640.00;;;;5070910;28;20221;-74
2021/06/22 01:20:58;;;;;;;9.47;5.10;;;26.30;90.50;33.90;98645.00;;;;5089565;28;20187;-73
2021/06/22 01:23:24;;;;;;;6.40;4.77;;;26.30;90.50;33.90;98633.00;;;;5087738;28;20179;-73
2021/06/22 01:25:50;;;;;;;6.80;5.13;;;26.30;90.50;34.00;98632.00;;;;5054438;28;20804;-73
2021/06/22 01:28:15;;;;;;;7.73;5.00;;;26.30;90.50;34.00;98633.00;;;;5071543;28;20180;-73
2021/06/22 01:30:41;;;;;;;7.43;5.60;;;26.30;90.50;34.00;98617.00;;;;5087872;28;20210;-73
2021/06/22 01:33:07;;;;;;;8.40;5.43;;;26.30;90.50;34.00;98619.00;;;;5088903;28;20216;-73
2021/06/22 01:35:33;;;;;;;8.07;5.67;;;26.30;90.50;34.10;98613.00;;;;5088551;28;20208;-73
2021/06/22 01:38:00;;;;;;;7.00;5.00;;;26.30;90.50;33.90;98617.00;;;;5071090;28;20277;-73
2021/06/22 01:40:26;;;;;;;7.63;4.73;;;26.20;90.50;33.90;98617.00;;;;5088480;28;20911;-74
2021/06/22 01:42:56;;;;;;;9.20;6.10;;;26.20;90.50;33.80;98613.00;;;;5071065;28;21031;-74
2021/06/22 01:45:22;;;;;;;7.67;5.80;;;26.20;90.50;33.90;98623.00;;;;5057728;28;20437;-73
2021/06/22 01:47:48;;;;;;;6.77;5.33;;;26.20;90.50;33.80;98620.00;;;;5074855;28;20939;-74
2021/06/22 01:50:15;;;;;;;8.17;5.40;;;26.20;90.50;33.80;98632.00;;;;5092043;28;20266;-73
2021/06/22 01:52:42;;;;;;;8.77;5.63;;;26.20;90.50;33.90;98634.00;;;;5075038;28;20317;-74
2021/06/22 01:57:53;;;;;;;7.23;5.63;;;26.20;90.50;33.90;98611.00;;;;5091277;28;20514;-74
2021/06/22 02:00:19;;;;;;;8.07;5.60;;;26.20;90.50;33.80;98628.00;;;;5107993;28;20444;-74
2021/06/22 02:02:45;;;;;;;7.37;5.63;;;26.20;90.50;33.80;98640.00;;;;5091408;28;20222;-74
2021/06/22 02:05:11;;;;;;;7.90;4.97;;;26.20;90.50;33.80;98636.00;;;;5074532;28;20520;-74
2021/06/22 02:07:37;;;;;;;8.13;5.60;;;26.20;90.50;33.80;98649.00;;;;5074542;28;20469;-74
2021/06/22 02:10:05;;;;;;;6.33;5.40;;;26.20;90.50;33.80;98646.00;;;;5092749;28;20472;-73
2021/06/22 02:12:30;;;;;;;7.13;5.20;;;26.20;90.50;33.80;98653.00;;;;5057061;28;20912;-73
2021/06/22 02:14:56;;;;;;;5.53;4.90;;;26.20;90.50;33.80;98660.00;;;;5090998;28;20529;-73
2021/06/22 02:17:22;;;;;;;7.30;5.00;;;26.20;90.50;33.70;98654.00;;;;5091537;28;20195;-73
2021/06/22 02:19:47;;;;;;;7.23;5.50;;;26.20;90.50;33.70;98651.00;;;;5073843;28;20219;-73
2021/06/22 02:22:13;;;;;;;9.60;5.50;;;26.20;90.50;33.80;98656.00;;;;5074918;28;20259;-73
2021/06/22 02:24:40;;;;;;;8.80;5.87;;;26.20;90.60;33.90;98647.00;;;;5074167;28;20257;-74
2021/06/22 02:27:06;;;;;;;8.40;5.57;;;26.20;90.50;33.80;98639.00;;;;5073859;28;20194;-74
2021/06/22 02:29:32;;;;;;;7.30;5.67;;;26.10;90.50;33.70;98651.00;;;;5073618;28;20615;-73
2021/06/22 02:31:58;;;;;;;8.87;5.57;;;26.10;90.50;33.70;98636.00;;;;5090963;28;20832;-72
2021/06/22 02:34:24;;;;;;;8.47;5.53;;;26.10;90.50;33.80;98630.00;;;;5106568;28;20180;-72
2021/06/22 02:36:49;;;;;;;6.77;5.60;;;26.10;90.50;33.80;98623.00;;;;5057866;28;20202;-72
2021/06/22 02:39:15;;;;;;;6.80;5.10;;;26.10;90.50;33.80;98633.00;;;;5090316;28;20194;-72
2021/06/22 02:41:41;;;;;;;7.87;5.50;;;26.10;90.50;33.70;98635.00;;;;5056726;28;20215;-72
2021/06/22 02:44:06;;;;;;;9.70;5.40;;;26.10;90.50;33.70;98638.00;;;;5073754;28;20191;-72
2021/06/22 02:46:32;;;;;;;8.37;5.60;;;26.10;90.50;33.70;98647.00;;;;5074402;28;20276;-72
2021/06/22 02:48:58;;;;;;;7.20;5.87;;;26.10;90.50;33.70;98653.00;;;;5056486;28;20649;-72
2021/06/22 02:51:23;;;;;;;9.63;5.97;;;26.10;90.50;33.90;98654.00;;;;5040433;28;20195;-72
2021/06/22 02:53:49;;;;;;;7.83;5.17;;;26.10;90.50;33.80;98662.00;;;;5073364;28;20233;-73
2021/06/22 02:56:15;;;;;;;7.53;5.10;;;26.10;90.50;33.70;98651.00;;;;5073040;28;20573;-72
2021/06/22 02:58:41;;;;;;;9.30;6.67;;;26.10;90.50;33.80;98650.00;;;;5073412;28;20638;-73
2021/06/22 03:01:06;;;;;;;7.37;5.40;;;26.10;90.60;33.70;98656.00;;;;5057017;28;20195;-72
2021/06/22 03:03:32;;;;;;;7.13;5.40;;;26.10;90.60;33.60;98663.00;;;;5073405;28;20234;-72
2021/06/22 03:05:58;;;;;;;7.17;5.47;;;26.10;90.60;33.70;98660.00;;;;5057163;28;20710;-72
2021/06/22 03:08:23;;;;;;;7.33;5.50;;;26.00;90.50;33.60;98651.00;;;;5091687;28;20672;-72
2021/06/22 03:10:49;;;;;;;8.10;5.90;;;26.00;90.50;33.60;98659.00;;;;5073860;28;20175;-72
2021/06/22 03:13:15;;;;;;;6.47;4.67;;;26.00;90.50;33.60;98664.00;;;;5073531;28;20216;-72
2021/06/22 03:15:40;;;;;;;7.00;5.87;;;26.00;90.50;33.60;98664.00;;;;5090016;28;20188;-72
2021/06/22 03:18:06;;;;;;;7.23;5.20;;;26.00;90.50;33.60;98676.00;;;;5072952;28;20260;-73
2021/06/22 03:20:32;;;;;;;11.37;5.40;;;26.00;90.60;33.70;98681.00;;;;5039818;28;20191;-72
2021/06/22 03:22:58;;;;;;;7.73;6.13;;;26.00;90.60;33.60;98691.00;;;;5073287;28;20222;-72
2021/06/22 03:25:24;;;;;;;7.47;5.30;;;26.00;90.50;33.60;98707.00;;;;5089683;28;20636;-74
2021/06/22 03:27:49;;;;;;;6.93;4.87;;;26.00;90.60;33.60;98718.00;;;;5056259;28;20257;-74
2021/06/22 03:30:16;;;;;;;7.90;5.90;;;26.00;90.60;33.50;98735.00;;;;5055921;28;20183;-74
2021/06/22 03:32:45;;;;;;;7.83;5.67;;;26.00;90.60;33.60;98738.00;;;;5089887;28;20211;-74
2021/06/22 03:35:13;;;;;;;7.17;5.40;;;26.00;90.60;33.60;98781.00;;;;5073236;28;20434;-74
2021/06/22 03:37:38;;;;;;;6.70;5.00;;;26.00;90.60;33.50;98809.00;;;;5072687;28;20978;-74
2021/06/22 03:40:05;;;;;;;6.30;5.10;;;26.00;90.60;33.50;98817.00;;;;5072799;28;20516;-74
2021/06/22 03:42:33;;;;;;;7.30;5.40;;;26.00;90.60;33.50;98815.00;;;;5089718;28;20203;-72
2021/06/22 03:44:59;;;;;;;7.90;5.90;;;26.00;90.60;33.60;98818.00;;;;5055856;28;20934;-72
2021/06/22 03:47:25;;;;;;;7.90;6.03;;;25.90;90.60;33.50;98819.00;;;;5091326;28;20554;-73
2021/06/22 03:49:50;;;;;;;8.30;5.80;;;25.90;90.60;33.60;98824.00;;;;5089502;28;20293;-73
2021/06/22 03:52:16;;;;;;;8.00;5.43;;;25.90;90.60;33.50;98833.00;;;;5072742;28;20207;-73
2021/06/22 03:54:42;;;;;;;7.60;5.50;;;25.90;90.60;33.50;98826.00;;;;5072361;28;20186;-73
2021/06/22 03:57:07;;;;;;;7.20;5.77;;;25.90;90.70;33.40;98818.00;;;;5090383;28;20203;-73
2021/06/22 03:59:33;;;;;;;6.70;5.43;;;25.90;90.70;33.50;98803.00;;;;5072352;28;20640;-73
2021/06/22 04:01:59;;;;;;;8.67;5.90;;;25.90;91.00;33.50;98831.00;;;;5072949;28;20214;-73
2021/06/22 04:04:25;;;;;;;8.30;5.90;;;25.90;90.60;33.50;98822.00;;;;5090667;28;20181;-73
2021/06/22 04:06:50;;;;;;;6.83;5.13;;;25.90;90.70;33.40;98820.00;;;;5055289;28;20227;-73
2021/06/22 04:09:16;;;;;;;8.77;5.40;;;25.90;90.70;33.50;98826.00;;;;5089341;28;20569;-73
2021/06/22 04:11:42;;;;;;;7.50;5.63;;;25.90;90.60;33.40;98837.00;;;;5071589;28;20665;-73
2021/06/22 04:14:08;;;;;;;6.73;5.60;;;25.90;90.70;33.50;98839.00;;;;5090759;28;20243;-73
2021/06/22 04:16:33;;;;;;;8.17;5.90;;;25.90;90.70;33.40;98832.00;;;;5089021;28;20234;-73
2021/06/22 04:18:59;;;;;;;7.60;6.03;;;25.90;90.70;33.40;98838.00;;;;5072244;28;20633;-74
2021/06/22 04:21:25;;;;;;;7.13;5.53;;;25.90;90.70;33.50;98839.00;;;;5089822;28;20705;-74
2021/06/22 04:23:50;;;;;;;7.10;5.67;;;25.90;90.60;33.40;98835.00;;;;5072629;28;20182;-74
2021/06/22 04:26:16;;;;;;;8.70;5.70;;;25.90;90.70;33.50;98839.00;;;;5088654;28;20203;-74
2021/06/22 04:28:42;;;;;;;11.13;5.70;;;25.90;90.70;33.50;98835.00;;;;5072375;28;20275;-74
2021/06/22 04:31:08;;;;;;;8.47;5.63;;;25.80;90.60;33.50;98826.00;;;;5089382;28;20744;-74
2021/06/22 04:33:34;;;;;;;7.73;5.60;;;25.80;90.60;33.40;98826.00;;;;5072201;28;20210;-74
2021/06/22 04:35:59;;;;;;;7.77;5.43;;;25.80;90.60;33.40;98813.00;;;;5071687;28;20187;-74
2021/06/22 04:38:25;;;;;;;6.17;5.20;;;25.80;90.60;33.40;98818.00;;;;5089249;28;20266;-75
2021/06/22 04:40:51;;;;;;;7.37;5.87;;;25.80;90.60;33.40;98812.00;;;;5088645;28;20242;-74
2021/06/22 04:43:17;;;;;;;8.10;6.00;;;25.80;90.70;33.50;98801.00;;;;5089203;28;20179;-74
2021/06/22 04:45:42;;;;;;;6.90;5.50;;;25.80;90.60;33.50;98808.00;;;;5055115;28;20186;-74
2021/06/22 04:48:08;;;;;;;7.87;5.30;;;25.80;90.60;33.40;98800.00;;;;5090043;28;20791;-74
2021/06/22 04:50:34;;;;;;;7.13;5.63;;;25.80;90.60;33.50;98800.00;;;;5088761;28;20190;-74
2021/06/22 04:53:00;;;;;;;7.73;5.70;;;25.80;90.60;33.40;98815.00;;;;5055567;28;20872;-74
2021/06/22 04:55:26;;;;;;;10.27;5.60;;;25.80;90.70;33.50;98810.00;;;;5054598;28;20179;-73
2021/06/22 04:57:52;;;;;;;6.67;5.43;;;25.80;90.70;33.50;98812.00;;;;5054892;28;20201;-73
2021/06/22 05:00:18;;;;;;;8.43;5.80;;;25.80;90.70;33.50;98815.00;;;;5071711;28;20468;-74
2021/06/22 05:02:45;;;;;;;6.30;5.00;;;25.80;90.70;33.60;98806.00;;;;5088519;28;20482;-74
2021/06/22 05:05:12;;;;;;;6.20;5.20;;;25.80;90.60;33.40;98824.00;;;;5055698;28;20433;-74
2021/06/22 05:07:38;;;;;;;9.90;5.60;;;25.80;90.70;33.50;98828.00;;;;5087818;28;20930;-74
2021/06/22 05:10:05;;;;;;;7.40;5.20;;;25.80;90.60;33.40;98832.00;;;;5088661;28;20793;-74
2021/06/22 05:12:30;;;;;;;7.47;6.07;;;25.80;90.70;33.40;98820.00;;;;5071336;28;20484;-74
2021/06/22 05:14:56;;;;;;;7.70;5.37;;;25.80;90.70;33.30;98819.00;;;;5071558;28;20456;-74
2021/06/22 05:17:22;;;;;;;7.10;5.43;;;25.80;90.70;33.40;98819.00;;;;5088333;28;20274;-73
2021/06/22 05:19:48;;;;;;;7.50;5.67;;;25.80;90.60;33.30;98816.00;;;;5091697;28;20541;-74
2021/06/22 05:22:14;;;;;;;6.80;5.60;;;25.80;90.60;33.40;98826.00;;;;5091936;28;20578;-73
2021/06/22 05:24:40;;;;;;;6.10;5.30;;;25.80;90.60;33.40;98827.00;;;;5075756;28;20180;-74
2021/06/22 05:27:07;;;;;;;7.27;5.77;;;25.80;90.60;33.40;98836.00;;;;5074712;28;20459;-74
2021/06/22 05:29:33;;;;;;;6.27;5.07;;;25.80;91.00;33.50;98827.00;;;;5058645;28;20444;-74
2021/06/22 05:31:59;;;;;;;7.03;5.80;;;25.80;90.60;33.60;98841.00;;;;5075277;28;20472;-74
2021/06/22 05:34:25;;;;;;;6.60;5.50;;;25.80;90.60;33.40;98846.00;;;;5075568;28;20643;-74
2021/06/22 05:36:50;;;;;;;9.20;6.00;;;25.80;90.60;33.70;98858.00;;;;5072904;28;20791;-74
2021/06/22 05:39:16;;;;;;;8.80;5.60;;;25.80;90.60;33.40;98867.00;;;;5058299;28;20186;-74
2021/06/22 05:41:42;;;;;;;8.30;5.77;;;25.80;90.70;33.40;98868.00;;;;5058178;28;20202;-74
2021/06/22 05:44:08;;;;;;;6.23;5.00;;;25.80;90.70;33.50;98865.00;;;;5092619;28;20518;-74
2021/06/22 05:46:33;;;;;;;7.40;5.47;;;25.80;90.60;33.40;98859.00;;;;5070522;28;20215;-74
2021/06/22 05:48:59;;;;;;;6.80;5.67;;;25.70;90.60;33.60;98867.00;;;;5073321;28;20319;-73
2021/06/22 05:51:25;;;;;;;6.60;5.40;;;25.70;90.60;33.40;98856.00;;;;5090599;28;20226;-74
2021/06/22 05:53:51;;;;;;;8.20;5.27;;;25.70;90.60;33.30;98864.00;;;;5090657;28;20479;-73
2021/06/22 05:56:17;;;;;;;6.90;5.13;;;25.70;90.60;33.40;98858.00;;;;5091322;28;20293;-73
2021/06/22 05:58:43;;;;;;;5.40;4.57;;;25.70;90.60;33.30;98859.00;;;;5090445;28;20524;-73
2021/06/22 06:01:08;;;;;;;7.70;5.90;;;25.70;90.60;33.20;98852.00;;;;5092618;28;20211;-73
2021/06/22 06:03:34;;;;;;;6.90;5.30;;;25.70;90.60;33.50;98873.00;;;;5089737;28;20194;-73
2021/06/22 06:06:04;;;;;;;6.10;4.90;;;25.70;90.60;33.50;98877.00;;;;5107348;28;20183;-73
2021/06/22 06:08:32;;;;;;;7.40;5.40;;;25.70;90.60;33.60;98873.00;;;;5107539;28;20221;-73
2021/06/22 06:11:00;;;;;;;7.63;5.70;;;25.70;90.70;33.60;98880.00;;;;5106795;28;20431;-72
2021/06/22 06:13:33;;;;;;;6.60;5.47;;;25.70;90.60;33.60;98894.00;;;;5107147;28;20971;-73
2021/06/22 06:15:59;;;;;;;6.60;5.13;;;25.70;90.70;33.30;98885.00;;;;5107449;28;20431;-73
2021/06/22 06:18:26;;;;;;;7.57;5.83;;;25.70;90.60;33.40;98884.00;;;;5107656;28;20764;-73
2021/06/22 06:20:52;;;;;;;8.20;5.77;;;25.70;90.60;33.40;98873.00;;;;5108282;28;20208;-73
2021/06/22 06:23:18;;;;;;;9.70;5.50;;;25.70;90.70;33.30;98888.00;;;;5091085;28;20424;-72
2021/06/22 06:25:45;;;;;;;8.17;5.30;;;25.70;90.70;33.40;98865.00;;;;5107430;28;20441;-73
2021/06/22 06:28:33;;;;;;;7.97;5.47;;;25.70;90.70;33.30;98887.00;;;;5107287;28;20501;-73
2021/06/22 06:30:58;;;;;;;7.23;5.70;;;25.70;90.70;33.40;98900.00;;;;5089875;28;20477;-72
2021/06/22 06:33:24;;;;;;;8.50;5.80;;;25.70;90.70;33.30;98898.00;;;;5091274;28;20564;-73
2021/06/22 06:35:53;;;;;;;8.37;6.00;;;25.70;90.70;33.40;98886.00;;;;5108214;28;20644;-73
2021/06/22 06:38:19;;;;;;;6.53;5.33;;;25.70;90.70;33.40;98882.00;;;;5107689;28;20309;-73
2021/06/22 06:40:44;;;;;;;6.43;5.30;;;25.70;90.70;33.40;98887.00;;;;5107569;28;20513;-73
2021/06/22 06:43:10;;;;;;;7.47;4.70;;;25.70;90.70;33.30;98894.00;;;;5091579;28;20695;-73
2021/06/22 06:45:36;;;;;;;7.70;5.63;;;25.70;90.70;33.30;98904.00;;;;5107207;28;20748;-73
2021/06/22 06:48:03;;;;;;;7.60;5.90;;;25.60;90.60;33.30;98897.00;;;;5106542;28;20548;-73
2021/06/22 06:50:28;;;;;;;6.90;5.23;;;25.60;90.60;33.40;98900.00;;;;5090922;28;20186;-73
2021/06/22 06:52:54;;;;;;;6.27;5.10;;;25.70;90.70;33.50;98911.00;;;;5106834;28;20487;-73
2021/06/22 06:55:29;;;;;;;6.07;4.70;;;25.60;90.60;33.50;98917.00;;;;5107606;28;20278;-73
2021/06/22 06:57:58;;;;;;;7.47;4.80;;;25.60;90.60;33.50;98918.00;;;;5105615;28;20792;-72
2021/06/22 07:00:25;;;;;;;8.97;5.30;;;25.60;90.60;33.40;98905.00;;;;5107045;28;20520;-72
2021/06/22 07:02:51;;;;;;;6.67;5.30;;;25.60;90.60;33.50;98923.00;;;;5106852;28;20843;-72
2021/06/22 07:05:17;;;;;;;8.57;5.27;;;25.60;90.70;33.50;98918.00;;;;5107755;28;20436;-72
2021/06/22 07:07:43;;;;;;;7.67;5.00;;;25.60;90.70;33.40;98919.00;;;;5106189;28;20472;-72
2021/06/22 07:10:10;;;;;;;7.77;5.30;;;25.60;90.60;33.40;98921.00;;;;5091930;28;20431;-72
2021/06/22 07:12:36;;;;;;;8.93;5.43;;;25.60;90.70;33.50;98923.00;;;;5106542;28;20327;-72
2021/06/22 07:15:02;;;;;;;7.23;4.93;;;25.60;90.70;33.40;98937.00;;;;5106905;28;20803;-72
2021/06/22 07:17:27;;;;;;;6.80;4.90;;;25.60;90.70;33.30;98933.00;;;;5107166;28;20213;-72
2021/06/22 07:19:53;;;;;;;6.57;5.10;;;25.60;90.70;33.30;98926.00;;;;5091313;28;20463;-72
2021/06/22 07:22:19;;;;;;;7.73;5.70;;;25.60;90.70;33.30;98914.00;;;;5106605;28;20202;-72
2021/06/22 07:24:50;;;;;;;6.87;5.23;;;25.60;90.70;33.20;98931.00;;;;5106402;28;20190;-73
2021/06/22 07:27:16;;;;;;;7.87;5.47;;;25.60;90.70;33.30;98927.00;;;;5091144;28;20703;-72
2021/06/22 07:29:42;;;;;;;15.93;6.27;;;25.60;90.60;33.40;98934.00;;;;5105673;28;21034;-72
2021/06/22 07:32:08;;;;;;;10.60;6.10;;;25.60;90.70;33.40;98933.00;;;;5107063;28;20502;-72
2021/06/22 07:34:35;;;;;;;15.97;7.50;;;25.60;90.60;33.30;98938.00;;;;5089134;28;20206;-72
2021/06/22 07:37:01;;;;;;;17.80;7.77;;;25.60;90.60;33.30;98938.00;;;;5106327;28;20459;-72
2021/06/22 07:39:28;;;;;;;16.10;7.60;;;25.60;91.00;33.40;98941.00;;;;5089429;28;20435;-71
2021/06/22 07:41:53;;;;;;;16.97;7.70;;;25.60;90.70;33.20;98927.00;;;;5105991;28;20453;-72
2021/06/22 07:44:19;;;;;;;15.07;7.53;;;25.60;90.70;33.40;98949.00;;;;5105952;28;20443;-72
2021/06/22 07:46:45;;;;;;;24.83;8.30;;;25.60;90.70;33.20;98949.00;;;;5106834;28;20221;-72
2021/06/22 07:49:10;;;;;;;22.83;8.37;;;25.60;90.70;33.30;98954.00;;;;5090809;28;20190;-73
2021/06/22 07:51:36;;;;;;;22.23;9.77;;;25.70;90.80;33.30;98948.00;;;;5106412;28;20233;-71
2021/06/22 07:54:02;;;;;;;22.30;8.47;;;25.60;90.70;33.40;98953.00;;;;5106399;28;20745;-71
2021/06/22 07:56:28;;;;;;;15.77;8.60;;;25.60;90.70;33.20;98948.00;;;;5106700;28;20237;-71
2021/06/22 07:58:53;;;;;;;21.47;8.20;;;25.60;90.70;33.30;98928.00;;;;5106021;28;20187;-71
2021/06/22 08:01:26;;;;;;;26.00;8.67;;;25.60;90.70;33.20;98966.00;;;;5106380;28;20203;-71
2021/06/22 08:03:52;;;;;;;17.20;9.40;;;25.60;90.70;33.20;98962.00;;;;5071632;28;20284;-73
2021/06/22 08:06:18;;;;;;;18.13;8.20;;;25.60;90.80;33.10;98961.00;;;;5106250;28;20471;-73
2021/06/22 08:08:44;;;;;;;27.70;7.63;;;25.60;90.70;33.30;98962.00;;;;5106114;28;20432;-71
2021/06/22 08:11:10;;;;;;;12.10;7.93;;;25.60;90.70;33.20;98958.00;;;;5090555;28;20208;-71
2021/06/22 08:13:36;;;;;;;13.90;7.40;;;25.60;90.70;33.20;98952.00;;;;5105499;28;20247;-71
2021/06/22 08:16:02;;;;;;;18.87;7.73;;;25.60;90.70;33.00;98962.00;;;;5105668;28;20835;-71
2021/06/22 08:18:28;;;;;;;17.27;7.33;;;25.60;90.80;33.30;98967.00;;;;5105104;28;20435;-71
2021/06/22 08:20:54;;;;;;;16.20;7.47;;;25.60;90.70;33.20;98976.00;;;;5090213;28;20484;-71
2021/06/22 08:23:20;;;;;;;19.00;7.67;;;25.60;90.70;33.30;98967.00;;;;5106305;28;20844;-72
2021/06/22 08:25:46;;;;;;;19.70;9.43;;;25.60;90.70;33.20;98974.00;;;;5104982;28;20648;-71
2021/06/22 08:28:12;;;;;;;12.50;7.03;;;25.60;90.80;33.10;98977.00;;;;5088718;28;20438;-71
2021/06/22 08:30:38;;;;;;;15.27;7.20;;;25.60;90.70;33.20;98957.00;;;;5104904;28;20483;-71
2021/06/22 08:33:04;;;;;;;15.00;7.97;;;25.60;90.80;33.20;98968.00;;;;5105739;28;20483;-71
2021/06/22 08:35:33;;;;;;;16.67;7.47;;;25.60;90.70;33.30;98966.00;;;;5088819;28;20179;-71
2021/06/22 08:37:59;;;;;;;11.50;7.00;;;25.60;90.70;33.00;98962.00;;;;5105408;28;20464;-72
2021/06/22 08:40:25;;;;;;;12.87;7.67;;;25.60;90.70;33.20;98967.00;;;;5104892;28;20955;-72
2021/06/22 08:42:51;;;;;;;18.67;7.77;;;25.60;90.80;33.20;98975.00;;;;5105967;28;20464;-71
2021/06/22 08:45:17;;;;;;;12.17;6.47;;;25.60;90.70;33.30;98969.00;;;;5104930;28;20656;-72
2021/06/22 08:47:44;;;;;;;10.90;6.20;;;25.60;90.70;33.20;98968.00;;;;5088318;28;20452;-71
2021/06/22 08:50:10;;;;;;;14.73;6.23;;;25.60;90.70;33.20;98967.00;;;;5105118;28;20438;-72
2021/06/22 08:52:36;;;;;;;10.60;6.60;;;25.60;90.70;33.40;98963.00;;;;5088468;28;20483;-72
2021/06/22 08:55:05;;;;;;;14.60;6.70;;;25.60;90.70;33.30;98968.00;;;;5106578;28;20440;-72
2021/06/22 08:57:32;;;;;;;13.93;6.00;;;25.60;90.70;33.30;98967.00;;;;5093111;28;20290;-72
2021/06/22 08:59:58;;;;;;;10.93;6.70;;;25.60;90.70;33.20;98972.00;;;;5108471;28;20445;-71
2021/06/22 09:02:30;;;;;;;15.13;6.73;;;25.60;90.70;33.10;98964.00;;;;5091840;28;20463;-71
2021/06/22 09:04:58;;;;;;;10.07;5.47;;;25.60;90.70;33.10;98965.00;;;;5107686;28;20226;-71
2021/06/22 09:07:50;;;;;;;13.27;7.13;;;25.60;90.70;33.20;98975.00;;;;5107453;28;20473;-71
2021/06/22 09:10:35;;;;;;;12.23;6.60;;;25.60;90.70;33.30;98969.00;;;;5108373;28;20534;-72
2021/06/22 09:13:15;;;;;;;11.13;6.53;;;25.60;90.80;33.20;98975.00;;;;5108311;28;20528;-72
2021/06/22 09:15:43;;;;;;;9.10;6.27;;;25.60;90.80;33.40;98969.00;;;;5107588;28;20464;-71
2021/06/22 09:18:26;;;;;;;11.33;6.50;;;25.60;90.70;33.20;98963.00;;;;5109158;28;20809;-71
2021/06/22 09:20:54;;;;;;;14.87;6.57;;;25.60;90.70;33.20;98982.00;;;;5108506;28;20448;-71
2021/06/22 09:23:25;;;;;;;12.83;6.60;;;25.60;90.70;33.20;98972.00;;;;5109348;28;20477;-71
2021/06/22 09:25:52;;;;;;;10.97;6.10;;;25.60;90.70;33.20;98969.00;;;;5108681;28;20532;-71
2021/06/22 09:28:27;;;;;;;9.80;6.23;;;25.60;90.80;33.30;98958.00;;;;5108846;28;20458;-71
2021/06/22 09:31:10;;;;;;;15.27;6.50;;;25.60;90.70;33.30;98970.00;;;;5107823;28;20427;-71
2021/06/22 09:33:36;;;;;;;13.23;6.13;;;25.60;90.70;33.30;98969.00;;;;5107618;28;20469;-71
2021/06/22 09:36:25;;;;;;;11.50;6.20;;;25.60;90.70;33.40;98960.00;;;;5108509;28;20428;-71
2021/06/22 09:39:04;;;;;;;11.07;6.00;;;25.60;90.70;33.30;98966.00;;;;5093813;28;20467;-71
2021/06/22 09:41:35;;;;;;;10.53;5.73;;;25.60;90.70;33.30;98956.00;;;;5107843;28;20862;-71
2021/06/22 09:44:06;;;;;;;10.57;5.93;;;25.60;90.70;33.30;98956.00;;;;5092806;28;20559;-72
2021/06/22 09:46:35;;;;;;;11.23;6.37;;;25.60;90.70;33.40;98956.00;;;;5108453;28;20510;-72
2021/06/22 09:49:01;;;;;;;15.27;5.67;;;25.60;90.70;33.40;98953.00;;;;5108535;28;20798;-72
2021/06/22 09:51:35;;;;;;;8.50;5.73;;;25.60;90.70;33.40;98956.00;;;;5108673;28;20467;-72
2021/06/22 09:54:27;;;;;;;10.50;5.90;;;25.60;90.70;33.30;98953.00;;;;5108330;28;21064;-72
2021/06/22 09:57:02;;;;;;;9.50;6.27;;;25.60;90.70;33.30;98945.00;;;;5107990;28;20875;-72
2021/06/22 09:59:33;;;;;;;9.10;5.27;;;25.60;90.70;33.40;98946.00;;;;5092744;28;20444;-72
2021/06/22 10:02:08;;;;;;;9.47;5.80;;;25.60;90.70;33.40;98936.00;;;;5108378;28;20804;-71
2021/06/22 10:04:34;;;;;;;9.87;5.30;;;25.60;90.70;33.40;98929.00;;;;5107356;28;20437;-72
2021/06/22 10:07:00;;;;;;;8.80;5.33;;;25.60;90.70;33.40;98937.00;;;;5107709;28;20477;-72
2021/06/22 10:09:27;;;;;;;8.97;5.13;;;25.60;90.70;33.40;98943.00;;;;5108615;28;20436;-71
2021/06/22 10:12:13;;;;;;;9.07;5.77;;;25.60;90.70;33.30;98926.00;;;;5107265;28;21007;-71
2021/06/22 10:14:44;;;;;;;9.77;5.43;;;25.60;90.70;33.40;98933.00;;;;5107631;28;20475;-72
2021/06/22 10:17:18;;;;;;;9.47;5.80;;;25.60;90.70;33.30;98930.00;;;;5108451;28;20467;-71
2021/06/22 10:19:45;;;;;;;9.17;5.53;;;25.60;90.70;33.40;98939.00;;;;5106964;28;20441;-72
2021/06/22 10:22:12;;;;;;;10.20;6.07;;;25.60;90.70;33.40;98934.00;;;;5108065;28;20979;-71
2021/06/22 10:24:42;;;;;;;11.13;5.30;;;25.60;90.70;33.40;98930.00;;;;5107394;28;20478;-72
2021/06/22 10:27:08;;;;;;;11.60;6.00;;;25.60;90.70;33.30;98923.00;;;;5107557;28;20460;-71
2021/06/22 10:29:35;;;;;;;10.67;5.47;;;25.60;90.70;33.40;98934.00;;;;5107950;28;20441;-72
2021/06/22 10:32:00;;;;;;;13.23;5.90;;;25.60;90.70;33.50;98950.00;;;;5107284;28;20460;-71
2021/06/22 10:34:27;;;;;;;11.90;6.33;;;25.60;90.70;33.40;98941.00;;;;5108233;28;20490;-71
2021/06/22 10:37:13;;;;;;;13.67;5.40;;;25.60;90.70;33.60;98939.00;;;;5107038;28;20203;-71
2021/06/22 10:39:58;;;;;;;11.30;5.50;;;25.70;90.80;33.60;98945.00;;;;5090637;28;20468;-71
2021/06/22 10:42:24;;;;;;;10.20;5.00;;;25.70;90.80;33.50;98934.00;;;;5105477;28;20476;-72
2021/06/22 10:44:59;;;;;;;10.10;5.13;;;25.70;90.80;33.60;98937.00;;;;5107351;28;20438;-72
2021/06/22 10:47:39;;;;;;;11.00;5.47;;;25.70;90.80;33.60;98941.00;;;;5091805;28;20206;-71
2021/06/22 10:50:23;;;;;;;10.93;4.93;;;25.70;90.90;33.60;98935.00;;;;5107707;28;20714;-72
2021/06/22 10:52:57;;;;;;;8.50;5.33;;;25.70;90.90;33.50;98917.00;;;;5091331;28;20515;-71
2021/06/22 10:55:33;;;;;;;12.10;5.90;;;25.70;90.90;33.50;98939.00;;;;5107026;28;20807;-72